createdAt,value
2023-04-12T00:02:22.127Z,4.60
2023-04-12T00:04:55.439Z,4.70
2023-04-12T00:07:26.272Z,4.60
2023-04-12T00:09:53.226Z,4.60
2023-04-12T00:12:20.788Z,4.60
2023-04-12T00:14:48.580Z,4.60
2023-04-12T00:17:15.494Z,4.60
2023-04-12T00:19:42.456Z,4.50
2023-04-12T00:22:09.828Z,4.60
2023-04-12T00:24:39.790Z,4.60
2023-04-12T00:27:07.075Z,4.50
2023-04-12T00:29:34.184Z,4.50
2023-04-12T00:32:01.734Z,4.50
2023-04-12T00:34:28.900Z,4.50
2023-04-12T00:36:56.339Z,4.40
2023-04-12T00:39:23.392Z,4.40
2023-04-12T00:41:50.731Z,4.60
2023-04-12T00:44:18.329Z,4.40
2023-04-12T00:46:46.637Z,4.40
2023-04-12T00:49:14.110Z,4.40
2023-04-12T00:51:41.544Z,4.40
2023-04-12T00:54:08.493Z,4.40
2023-04-12T00:56:36.899Z,4.40
2023-04-12T00:59:04.011Z,4.30
2023-04-12T01:01:32.539Z,4.40
2023-04-12T01:04:01.222Z,4.40
2023-04-12T01:06:36.078Z,4.40
2023-04-12T01:09:21.869Z,4.40
2023-04-12T01:12:13.471Z,4.40
2023-04-12T01:14:58.227Z,4.40
2023-04-12T01:17:38.087Z,4.40
2023-04-12T01:20:16.840Z,4.40
2023-04-12T01:23:28.472Z,4.50
2023-04-12T01:26:36.165Z,4.50
2023-04-12T01:29:08.992Z,4.40
2023-04-12T01:31:36.940Z,4.50
2023-04-12T01:34:06.177Z,4.50
2023-04-12T01:36:34.785Z,4.60
2023-04-12T01:39:04.576Z,4.50
2023-04-12T01:41:32.991Z,4.50
2023-04-12T01:43:59.964Z,4.50
2023-04-12T01:46:26.827Z,4.50
2023-04-12T01:48:54.752Z,4.50
2023-04-12T01:51:56.898Z,4.50
2023-04-12T01:54:27.909Z,4.60
2023-04-12T01:56:58.015Z,4.60
2023-04-12T01:59:39.800Z,4.60
2023-04-12T02:02:11.198Z,4.60
2023-04-12T02:04:39.042Z,4.70
2023-04-12T02:07:06.022Z,4.70
2023-04-12T02:09:38.376Z,4.70
2023-04-12T02:12:06.762Z,4.70
2023-04-12T02:14:33.774Z,4.70
2023-04-12T02:17:02.406Z,4.60
2023-04-12T02:19:29.580Z,4.70
2023-04-12T02:21:56.723Z,4.60
2023-04-12T02:24:23.704Z,4.70
2023-04-12T02:26:50.599Z,4.80
2023-04-12T02:29:17.990Z,4.70
2023-04-12T02:31:44.867Z,4.70
2023-04-12T02:34:13.265Z,4.70
2023-04-12T02:36:40.226Z,4.70
2023-04-12T02:39:07.846Z,4.80
2023-04-12T02:41:36.453Z,4.70
2023-04-12T02:44:03.597Z,4.70
2023-04-12T02:46:31.016Z,4.80
2023-04-12T02:48:58.276Z,4.80
2023-04-12T02:51:25.186Z,4.80
2023-04-12T02:53:52.117Z,4.90
2023-04-12T02:56:19.327Z,4.80
2023-04-12T02:58:46.438Z,4.80
2023-04-12T03:01:14.736Z,4.90
2023-04-12T03:03:41.977Z,4.90
2023-04-12T03:06:11.745Z,4.90
2023-04-12T03:08:39.150Z,4.80
2023-04-12T03:11:06.518Z,4.70
2023-04-12T03:13:33.576Z,4.80
2023-04-12T03:16:00.882Z,4.80
2023-04-12T03:18:27.914Z,4.80
2023-04-12T03:20:54.768Z,4.70
2023-04-12T03:23:21.963Z,4.70
2023-04-12T03:25:49.007Z,4.80
2023-04-12T03:28:15.960Z,4.80
2023-04-12T03:30:43.085Z,4.80
2023-04-12T03:33:10.127Z,4.90
2023-04-12T03:35:37.184Z,4.90
2023-04-12T03:38:04.237Z,5.00
2023-04-12T03:40:31.116Z,4.90
2023-04-12T03:42:59.923Z,4.90
2023-04-12T03:45:28.384Z,4.90
2023-04-12T03:47:55.662Z,4.90
2023-04-12T03:50:22.904Z,4.90
2023-04-12T03:52:50.204Z,4.90
2023-04-12T03:55:18.376Z,4.90
2023-04-12T03:57:45.480Z,4.90
2023-04-12T04:00:13.468Z,4.90
2023-04-12T04:02:40.546Z,4.90
2023-04-12T04:05:07.863Z,4.90
2023-04-12T04:07:35.145Z,5.00
2023-04-12T04:10:02.930Z,5.00
2023-04-12T04:12:29.815Z,5.00
2023-04-12T04:14:56.704Z,5.00
2023-04-12T04:17:23.744Z,5.00
2023-04-12T04:19:51.276Z,5.10
2023-04-12T04:22:21.494Z,5.10
2023-04-12T04:24:50.131Z,5.10
2023-04-12T04:27:17.080Z,5.20
2023-04-12T04:29:46.962Z,5.10
2023-04-12T04:32:13.890Z,5.10
2023-04-12T04:34:40.814Z,5.10
2023-04-12T04:37:07.989Z,5.10
2023-04-12T04:39:34.876Z,5.20
2023-04-12T04:42:01.755Z,5.20
2023-04-12T04:44:28.888Z,5.20
2023-04-12T04:46:56.678Z,5.20
2023-04-12T04:49:23.599Z,5.20
2023-04-12T04:51:50.583Z,5.30
2023-04-12T04:54:17.459Z,5.30
2023-04-12T04:56:44.338Z,5.30
2023-04-12T04:59:11.184Z,5.30
2023-04-12T05:01:38.312Z,5.30
2023-04-12T05:04:05.462Z,5.40
2023-04-12T05:06:33.538Z,5.40
2023-04-12T05:09:01.751Z,5.40
2023-04-12T05:11:28.680Z,5.40
2023-04-12T05:13:55.578Z,5.40
2023-04-12T05:16:22.515Z,5.40
2023-04-12T05:18:49.452Z,5.50
2023-04-12T05:21:16.303Z,5.50
2023-04-12T05:23:45.891Z,5.50
2023-04-12T05:26:13.068Z,5.60
2023-04-12T05:28:39.927Z,5.50
2023-04-12T05:31:07.306Z,5.50
2023-04-12T05:33:36.799Z,5.50
2023-04-12T05:36:04.625Z,5.60
2023-04-12T05:38:32.027Z,5.70
2023-04-12T05:40:58.961Z,5.70
2023-04-12T05:43:26.025Z,5.70
2023-04-12T05:45:53.079Z,5.80
2023-04-12T05:48:20.165Z,5.80
2023-04-12T05:50:54.264Z,5.90
2023-04-12T05:53:22.294Z,5.90
2023-04-12T05:55:49.253Z,5.80
2023-04-12T05:58:16.163Z,5.80
2023-04-12T06:00:43.095Z,5.80
2023-04-12T06:03:11.595Z,5.90
2023-04-12T06:05:39.399Z,6.00
2023-04-12T06:08:06.808Z,6.00
2023-04-12T06:10:33.992Z,6.00
2023-04-12T06:13:00.838Z,6.10
2023-04-12T06:15:28.083Z,6.10
2023-04-12T06:17:55.232Z,6.20
2023-04-12T06:20:22.219Z,6.30
2023-04-12T06:22:49.487Z,6.40
2023-04-12T06:25:19.180Z,6.50
2023-04-12T06:27:46.199Z,6.50
2023-04-12T06:30:13.460Z,6.60
2023-04-12T06:32:40.466Z,6.70
2023-04-12T06:35:07.937Z,6.70
2023-04-12T06:37:35.016Z,6.80
2023-04-12T06:40:02.108Z,6.90
2023-04-12T06:42:29.132Z,7.00
2023-04-12T06:44:56.209Z,7.30
2023-04-12T06:47:25.455Z,8.00
2023-04-12T06:49:56.294Z,8.80
2023-04-12T06:52:26.853Z,9.40
2023-04-12T06:54:56.110Z,9.70
2023-04-12T06:57:23.595Z,10.10
2023-04-12T06:59:50.594Z,10.30
2023-04-12T07:02:18.799Z,10.80
2023-04-12T07:04:46.032Z,11.30
2023-04-12T07:07:13.428Z,11.80
2023-04-12T07:09:43.357Z,12.00
2023-04-12T07:12:10.354Z,12.10
2023-04-12T07:14:37.433Z,12.40
2023-04-12T07:17:04.423Z,12.50
2023-04-12T07:19:31.811Z,12.20
2023-04-12T07:21:58.912Z,11.70
2023-04-12T07:24:25.867Z,11.50
2023-04-12T07:26:56.285Z,11.20
2023-04-12T07:29:23.616Z,11.70
2023-04-12T07:31:50.843Z,12.20
2023-04-12T07:34:18.125Z,12.30
2023-04-12T07:36:45.290Z,12.80
2023-04-12T07:39:12.583Z,13.20
2023-04-12T07:41:39.931Z,13.30
2023-04-12T07:44:06.770Z,13.50
2023-04-12T07:46:33.702Z,14.30
2023-04-12T07:49:00.621Z,14.30
2023-04-12T07:51:27.538Z,14.00
2023-04-12T07:53:54.558Z,13.90
2023-04-12T07:56:21.684Z,13.60
2023-04-12T07:58:48.597Z,13.30
2023-04-12T08:01:16.104Z,13.00
2023-04-12T08:03:43.271Z,12.90
2023-04-12T08:06:10.479Z,12.90
2023-04-12T08:08:37.419Z,13.00
2023-04-12T08:11:06.329Z,12.80
2023-04-12T08:13:34.677Z,13.00
2023-04-12T08:16:01.917Z,12.90
2023-04-12T08:18:29.340Z,12.70
2023-04-12T08:20:57.695Z,12.50
2023-04-12T08:23:25.765Z,12.40
2023-04-12T08:25:59.457Z,12.10
2023-04-12T08:28:28.677Z,12.10
2023-04-12T08:30:55.771Z,12.10
2023-04-12T08:33:22.750Z,12.00
2023-04-12T08:35:49.642Z,11.80
2023-04-12T08:38:16.547Z,12.00
2023-04-12T08:40:44.050Z,12.20
2023-04-12T08:43:12.355Z,12.30
2023-04-12T08:45:39.645Z,12.40
2023-04-12T08:48:07.032Z,12.20
2023-04-12T08:50:34.286Z,12.20
2023-04-12T08:53:01.526Z,12.10
2023-04-12T08:55:28.666Z,12.10
2023-04-12T08:57:56.918Z,12.00
2023-04-12T09:00:24.241Z,12.10
2023-04-12T09:02:51.667Z,12.20
2023-04-12T09:05:18.956Z,12.40
2023-04-12T09:07:46.131Z,12.40
2023-04-12T09:10:33.873Z,12.30
2023-04-12T09:13:01.319Z,12.10
2023-04-12T09:15:28.205Z,12.40
2023-04-12T09:18:09.989Z,12.30
2023-04-12T09:20:38.217Z,12.30
2023-04-12T09:23:24.092Z,12.00
2023-04-12T09:25:54.014Z,12.00
2023-04-12T09:28:26.602Z,11.90
2023-04-12T09:30:55.567Z,11.90
2023-04-12T09:33:32.245Z,11.70
2023-04-12T09:36:03.828Z,11.60
2023-04-12T09:38:32.094Z,11.50
2023-04-12T09:41:21.602Z,11.60
2023-04-12T09:43:50.642Z,11.50
2023-04-12T09:46:17.641Z,11.60
2023-04-12T09:48:55.089Z,11.70
2023-04-12T09:51:29.190Z,11.80
2023-04-12T09:54:01.396Z,11.80
2023-04-12T09:56:33.452Z,11.80
2023-04-12T09:59:05.228Z,11.90
2023-04-12T10:01:38.570Z,11.90
2023-04-12T10:04:09.988Z,11.80
2023-04-12T10:06:37.359Z,11.90
2023-04-12T10:09:05.487Z,11.90
2023-04-12T10:11:34.162Z,11.80
2023-04-12T10:14:03.029Z,11.70
2023-04-12T10:16:31.252Z,11.80
2023-04-12T10:19:02.254Z,11.90
2023-04-12T10:21:29.603Z,11.90
2023-04-12T10:23:57.315Z,11.80
2023-04-12T10:26:24.617Z,11.90
2023-04-12T10:29:22.669Z,12.10
2023-04-12T10:31:50.784Z,12.40
2023-04-12T10:34:17.869Z,12.60
2023-04-12T10:36:53.140Z,12.90
2023-04-12T10:39:39.338Z,13.10
2023-04-12T10:42:27.123Z,13.10
2023-04-12T10:45:20.074Z,13.30
2023-04-12T10:47:50.282Z,13.10
2023-04-12T10:50:30.129Z,13.00
2023-04-12T10:53:22.097Z,13.20
2023-04-12T10:55:49.123Z,13.00
2023-04-12T10:58:50.242Z,12.70
2023-04-12T11:01:18.820Z,12.80
2023-04-12T11:04:17.139Z,12.60
2023-04-12T11:06:59.134Z,12.50
2023-04-12T11:09:27.739Z,12.30
2023-04-12T11:12:04.712Z,12.30
2023-04-12T11:14:36.890Z,12.30
2023-04-12T11:17:06.546Z,12.20
2023-04-12T11:19:34.525Z,12.10
2023-04-12T11:22:03.369Z,12.20
2023-04-12T11:24:30.749Z,12.40
2023-04-12T11:26:58.332Z,12.40
2023-04-12T11:29:26.447Z,12.70
2023-04-12T11:31:53.647Z,12.80
2023-04-12T11:34:21.136Z,12.80
2023-04-12T11:36:52.655Z,12.80
2023-04-12T11:39:21.300Z,12.50
2023-04-12T11:41:49.464Z,12.40
2023-04-12T11:44:21.787Z,12.30
2023-04-12T11:46:49.498Z,12.10
2023-04-12T11:49:20.062Z,12.00
2023-04-12T11:51:49.594Z,11.90
2023-04-12T11:54:16.635Z,12.00
2023-04-12T11:56:43.499Z,11.90
2023-04-12T11:59:10.544Z,11.90
2023-04-12T12:01:37.961Z,11.90
2023-04-12T12:04:05.868Z,12.00
2023-04-12T12:06:33.711Z,11.90
2023-04-12T12:09:01.048Z,11.80
2023-04-12T12:11:28.079Z,11.80
2023-04-12T12:13:56.407Z,11.80
2023-04-12T12:16:28.792Z,11.90
2023-04-12T12:18:56.644Z,11.90
2023-04-12T12:21:24.010Z,11.80
2023-04-12T12:23:51.022Z,11.80
2023-04-12T12:26:36.588Z,11.70
2023-04-12T12:29:03.537Z,11.50
2023-04-12T12:31:31.215Z,11.40
2023-04-12T12:33:59.743Z,11.30
2023-04-12T12:36:35.782Z,11.10
2023-04-12T12:39:12.934Z,11.00
2023-04-12T12:41:41.165Z,11.00
2023-04-12T12:44:08.670Z,10.80
2023-04-12T12:49:06.150Z,10.70
2023-04-12T12:51:33.245Z,10.60
2023-04-12T12:54:00.949Z,10.50
2023-04-12T12:56:27.894Z,10.50
2023-04-12T12:58:54.853Z,10.40
2023-04-12T13:01:21.920Z,10.40
2023-04-12T13:03:48.941Z,10.30
2023-04-12T13:06:16.043Z,10.20
2023-04-12T13:08:42.888Z,10.20
2023-04-12T13:11:09.767Z,10.10
2023-04-12T13:13:36.646Z,10.00
2023-04-12T13:16:03.801Z,10.10
2023-04-12T13:18:30.746Z,10.00
2023-04-12T13:20:58.025Z,10.00
2023-04-12T13:23:24.889Z,10.00
2023-04-12T13:25:53.089Z,10.00
2023-04-12T13:28:20.827Z,10.00
2023-04-12T13:30:48.724Z,10.00
2023-04-12T13:33:20.054Z,10.00
2023-04-12T13:35:48.711Z,10.00
2023-04-12T13:38:15.634Z,10.00
2023-04-12T13:40:42.542Z,9.90
2023-04-12T13:43:09.480Z,10.00
2023-04-12T13:45:36.791Z,9.90
2023-04-12T13:48:03.916Z,9.90
2023-04-12T13:50:30.997Z,9.80
2023-04-12T13:52:57.832Z,9.90
2023-04-12T13:55:24.734Z,9.80
2023-04-12T13:57:51.611Z,9.80
2023-04-12T14:00:19.644Z,9.80
2023-04-12T14:02:46.709Z,9.80
2023-04-12T14:05:13.804Z,9.70
2023-04-12T14:07:41.009Z,9.70
2023-04-12T14:10:08.767Z,9.70
2023-04-12T14:12:36.077Z,9.70
2023-04-12T14:15:03.486Z,9.60
2023-04-12T14:17:32.659Z,9.60
2023-04-12T14:20:00.506Z,9.60
2023-04-12T14:22:27.969Z,9.50
2023-04-12T14:24:55.124Z,9.50
2023-04-12T14:27:22.407Z,9.60
2023-04-12T14:29:49.548Z,9.60
2023-04-12T14:32:16.618Z,9.60
2023-04-12T14:34:43.877Z,9.60
2023-04-12T14:37:11.136Z,9.40
2023-04-12T14:39:38.251Z,9.40
2023-04-12T14:42:06.239Z,9.40
2023-04-12T14:44:33.188Z,9.40
2023-04-12T14:47:00.231Z,9.40
2023-04-12T14:49:28.520Z,9.40
2023-04-12T14:51:57.284Z,9.20
2023-04-12T14:54:25.333Z,9.30
2023-04-12T14:56:55.859Z,9.40
2023-04-12T14:59:23.414Z,9.30
2023-04-12T15:01:52.651Z,9.30
2023-04-12T15:04:20.227Z,9.30
2023-04-12T15:06:47.285Z,9.40
2023-04-12T15:09:15.774Z,9.40
2023-04-12T15:11:46.436Z,9.30
2023-04-12T15:14:18.054Z,9.30
2023-04-12T15:16:46.781Z,9.30
2023-04-12T15:19:20.027Z,9.30
2023-04-12T15:21:51.058Z,9.30
2023-04-12T15:24:27.024Z,9.30
2023-04-12T15:26:53.897Z,9.40
2023-04-12T15:29:22.845Z,9.40
2023-04-12T15:31:50.456Z,9.40
2023-04-12T15:34:17.608Z,9.20
2023-04-12T15:36:45.988Z,9.20
2023-04-12T15:39:14.921Z,9.30
2023-04-12T15:41:42.921Z,9.20
2023-04-12T15:44:13.123Z,9.20
2023-04-12T15:46:43.588Z,9.20
2023-04-12T15:49:11.378Z,9.10
2023-04-12T15:51:38.598Z,9.10
2023-04-12T15:54:06.283Z,9.20
2023-04-12T15:56:34.470Z,9.20
2023-04-12T15:59:01.789Z,9.20
2023-04-12T16:01:29.030Z,9.20
2023-04-12T16:03:56.053Z,9.20
2023-04-12T16:06:25.227Z,9.20
2023-04-12T16:08:57.530Z,9.20
2023-04-12T16:11:24.791Z,9.20
2023-04-12T16:13:52.891Z,9.20
2023-04-12T16:16:22.579Z,9.20
2023-04-12T16:18:50.159Z,9.10
2023-04-12T16:21:20.082Z,9.10
2023-04-12T16:23:48.748Z,9.10
2023-04-12T16:26:21.450Z,9.10
2023-04-12T16:28:50.366Z,9.10
2023-04-12T16:31:19.740Z,9.10
2023-04-12T16:33:49.913Z,9.10
2023-04-12T16:36:17.162Z,9.10
2023-04-12T16:38:47.929Z,9.00
2023-04-12T16:41:17.184Z,9.00
2023-04-12T16:43:45.443Z,9.10
2023-04-12T16:46:12.672Z,9.10
2023-04-12T16:48:41.203Z,9.10
2023-04-12T16:51:08.247Z,9.10
2023-04-12T16:53:37.461Z,9.10
2023-04-12T16:56:07.130Z,9.10
2023-04-12T16:58:34.148Z,9.00
2023-04-12T17:01:01.909Z,9.00
2023-04-12T17:03:29.113Z,9.10
2023-04-12T17:05:56.232Z,9.10
2023-04-12T17:08:23.204Z,9.10
2023-04-12T17:10:50.184Z,9.10
2023-04-12T17:13:19.478Z,9.00
2023-04-12T17:15:50.088Z,9.00
2023-04-12T17:18:17.134Z,9.10
2023-04-12T17:20:44.207Z,9.10
2023-04-12T17:23:11.465Z,9.10
2023-04-12T17:25:38.693Z,9.00
2023-04-12T17:28:07.924Z,9.00
2023-04-12T17:30:34.955Z,9.10
2023-04-12T17:33:02.019Z,9.10
2023-04-12T17:35:29.482Z,9.10
2023-04-12T17:37:56.749Z,9.00
2023-04-12T17:40:23.646Z,9.00
2023-04-12T17:42:50.553Z,9.00
2023-04-12T17:45:18.442Z,9.00
2023-04-12T17:47:45.389Z,9.00
2023-04-12T17:50:12.615Z,9.00
2023-04-12T17:52:39.881Z,9.00
2023-04-12T17:55:09.348Z,9.00
2023-04-12T17:57:36.396Z,8.90
2023-04-12T18:00:07.254Z,8.90
2023-04-12T18:02:34.426Z,8.90
2023-04-12T18:05:01.468Z,8.90
2023-04-12T18:07:28.462Z,8.90
2023-04-12T18:09:56.165Z,8.90
2023-04-12T18:12:23.193Z,8.90
2023-04-12T18:14:50.092Z,8.90
2023-04-12T18:17:16.984Z,9.00
2023-04-12T18:19:43.808Z,8.90
2023-04-12T18:22:10.911Z,8.90
2023-04-12T18:24:38.566Z,9.00
2023-04-12T18:27:07.071Z,9.00
2023-04-12T18:29:34.327Z,9.00
2023-04-12T18:32:01.368Z,9.00
2023-04-12T18:34:28.450Z,8.90
2023-04-12T18:36:55.360Z,8.90
2023-04-12T18:39:22.224Z,8.90
2023-04-12T18:41:49.170Z,8.90
2023-04-12T18:44:17.601Z,8.90
2023-04-12T18:46:44.680Z,8.90
2023-04-12T18:49:11.901Z,9.00
2023-04-12T18:51:39.031Z,8.90
2023-04-12T18:54:08.414Z,8.90
2023-04-12T18:56:35.796Z,9.00
2023-04-12T18:59:03.798Z,9.00
2023-04-12T19:01:30.895Z,9.00
2023-04-12T19:03:59.665Z,9.00
2023-04-12T19:06:27.203Z,9.00
2023-04-12T19:08:54.423Z,9.00
2023-04-12T19:11:21.753Z,8.90
2023-04-12T19:13:48.661Z,8.90
2023-04-12T19:16:16.197Z,8.90
2023-04-12T19:18:43.125Z,8.90
2023-04-12T19:21:10.328Z,9.00
2023-04-12T19:23:37.260Z,9.00
2023-04-12T19:26:05.590Z,9.00
2023-04-12T19:28:32.590Z,9.00
2023-04-12T19:30:59.890Z,9.00
2023-04-12T19:33:26.891Z,9.00
2023-04-12T19:35:56.244Z,9.00
2023-04-12T19:38:23.232Z,9.00
2023-04-12T19:40:51.263Z,9.00
2023-04-12T19:43:21.010Z,9.00
2023-04-12T19:45:48.077Z,9.00
2023-04-12T19:48:17.035Z,8.90
2023-04-12T19:50:48.500Z,8.90
2023-04-12T19:53:18.586Z,8.90
2023-04-12T19:55:45.714Z,9.00
2023-04-12T19:58:13.660Z,9.00
2023-04-12T20:00:41.397Z,8.90
2023-04-12T20:03:09.482Z,8.90
2023-04-12T20:05:36.720Z,9.00
2023-04-12T20:08:03.886Z,9.00
2023-04-12T20:10:30.788Z,9.00
2023-04-12T20:12:57.710Z,9.00
2023-04-12T20:15:24.632Z,9.10
2023-04-12T20:17:52.207Z,9.10
2023-04-12T20:20:19.598Z,9.00
2023-04-12T20:22:51.802Z,9.00
2023-04-12T20:25:20.520Z,9.00
2023-04-12T20:27:52.280Z,9.00
2023-04-12T20:30:21.031Z,9.10
2023-04-12T20:32:54.392Z,9.00
2023-04-12T20:35:21.955Z,8.90
2023-04-12T20:37:50.950Z,8.90
2023-04-12T20:40:18.505Z,8.80
2023-04-12T20:42:45.871Z,8.80
2023-04-12T20:45:14.049Z,8.80
2023-04-12T20:47:41.561Z,8.80
2023-04-12T20:50:09.015Z,8.70
2023-04-12T20:52:36.499Z,8.60
2023-04-12T20:55:04.582Z,8.50
2023-04-12T20:57:31.577Z,8.50
2023-04-12T20:59:59.472Z,8.50
2023-04-12T21:02:26.558Z,8.50
2023-04-12T21:04:53.582Z,8.50
2023-04-12T21:07:22.661Z,8.50
2023-04-12T21:09:49.555Z,8.60
2023-04-12T21:12:17.621Z,8.50
2023-04-12T21:14:49.950Z,8.50
2023-04-12T21:17:16.944Z,8.50
2023-04-12T21:19:44.923Z,8.40
2023-04-12T21:22:11.850Z,8.40
2023-04-12T21:24:38.827Z,8.30
2023-04-12T21:27:09.891Z,8.30
2023-04-12T21:29:41.158Z,8.30
2023-04-12T21:32:09.231Z,8.20
2023-04-12T21:34:37.316Z,8.20
2023-04-12T21:37:05.442Z,8.20
2023-04-12T21:39:32.943Z,8.30
2023-04-12T21:41:59.797Z,8.30
2023-04-12T21:44:26.852Z,8.30
2023-04-12T21:46:53.686Z,8.20
2023-04-12T21:49:20.525Z,8.10
2023-04-12T21:51:49.169Z,8.10
2023-04-12T21:54:16.508Z,8.00
2023-04-12T21:56:43.538Z,8.00
2023-04-12T21:59:10.641Z,7.90
2023-04-12T22:01:38.028Z,7.90
2023-04-12T22:04:05.206Z,7.90
2023-04-12T22:06:32.109Z,7.90
2023-04-12T22:09:02.563Z,7.90
2023-04-12T22:11:30.528Z,7.90
2023-04-12T22:13:57.819Z,7.80
2023-04-12T22:16:24.848Z,7.80
2023-04-12T22:18:52.821Z,7.70
2023-04-12T22:21:20.691Z,7.60
2023-04-12T22:23:47.609Z,7.50
2023-04-12T22:26:15.554Z,7.50
2023-04-12T22:28:44.409Z,7.40
2023-04-12T22:31:16.394Z,7.40
2023-04-12T22:33:43.749Z,7.30
2023-04-12T22:36:10.847Z,7.30
2023-04-12T22:38:38.321Z,7.30
2023-04-12T22:41:06.332Z,7.30
2023-04-12T22:43:41.604Z,7.30
2023-04-12T22:46:18.813Z,7.20
2023-04-12T22:48:49.274Z,7.20
2023-04-12T22:51:16.573Z,7.20
2023-04-12T22:53:43.702Z,7.10
2023-04-12T22:56:11.346Z,7.10
2023-04-12T22:58:40.289Z,7.10
2023-04-12T23:01:07.844Z,7.20
2023-04-12T23:03:35.369Z,7.30
2023-04-12T23:06:02.545Z,7.30
2023-04-12T23:08:29.505Z,7.20
2023-04-12T23:11:02.449Z,7.20
2023-04-12T23:13:29.872Z,7.20
2023-04-12T23:15:57.792Z,7.20
2023-04-12T23:18:25.785Z,7.20
2023-04-12T23:20:53.960Z,7.10
2023-04-12T23:23:23.568Z,7.20
2023-04-12T23:25:50.692Z,7.20
2023-04-12T23:28:19.495Z,7.20
2023-04-12T23:30:51.270Z,7.20
2023-04-12T23:33:21.484Z,7.20
2023-04-12T23:35:49.660Z,7.20
2023-04-12T23:38:24.396Z,7.30
2023-04-12T23:40:54.226Z,7.30
2023-04-12T23:43:22.806Z,7.20
2023-04-12T23:45:51.612Z,7.10
2023-04-12T23:48:19.029Z,7.00
2023-04-12T23:50:46.368Z,7.00
2023-04-12T23:53:13.763Z,7.00
2023-04-12T23:55:43.806Z,7.00
2023-04-12T23:58:11.369Z,6.90
